Latest Weather Observations for Curtin

IDW60801

Issued at 5:33 pm WST Monday 17 December 2018 (issued every 10 minutes, with the page automatically refreshed every 10 minutes)

About weather observations | Map of weather stations | Latest weather observations for WA | Other Formats
Station Details ID: 003080 Name: CURTIN AERO Lat: -17.58 Lon: 123.83 Height: 77.5 m
Data from the previous 72 hours. | See also: Recent months at Curtin
Date/Time
WST
Temp
°C
App
Temp
°C
Dew
Point
°C
Rel
Hum
%
Delta-T
°C
Wind Press
QNH
hPa
Press
MSL
hPa
Rain since
9am
mm
Dir  Spd
km/h
Gust
km/h
Spd
kts
Gust
kts
17/05:30pm 35.2 35.1 17.9 36 11.3 NW 15 24 8 13 1003.7 1003.0 0.0
17/05:00pm 35.9 35.1 17.1 32 12.2 WNW 17 22 9 12 1003.4 1002.7 0.0
17/04:30pm 36.5 35.3 17.1 31 12.5 WNW 19 26 10 14 1003.3 1002.6 0.0
17/04:00pm 37.0 35.8 17.1 31 12.9 WNW 19 28 10 15 1003.3 1002.6 0.0
17/03:30pm 36.6 35.3 17.2 31 12.6 NW 20 32 11 17 1003.4 1002.7 0.0
17/03:00pm 37.2 35.9 17.2 30 13.0 NW 20 28 11 15 1003.4 1002.7 0.0
17/02:30pm 37.7 36.3 17.1 29 13.4 WNW 20 32 11 17 1003.6 1002.9 0.0
17/02:00pm 37.0 35.6 17.1 31 12.9 WNW 20 32 11 17 1004.0 1003.3 0.0
17/01:30pm 37.0 36.2 17.1 31 12.9 WNW 17 28 9 15 1004.4 1003.7 0.0
17/01:00pm 36.4 34.0 15.5 29 13.2 WSW 22 39 12 21 1004.8 1004.2 0.0
17/12:30pm 37.4 35.8 16.4 29 13.5 WNW 20 33 11 18 1005.2 1004.6 0.0
17/12:00pm 35.2 34.0 17.0 34 11.7 WNW 19 35 10 19 1005.7 1005.1 0.0
17/11:30am 34.9 34.3 17.6 35 11.2 WNW 17 28 9 15 1006.1 1005.5 0.0
17/11:00am 33.8 33.2 17.5 38 10.5 W 17 28 9 15 1006.6 1006.0 0.0
17/10:30am 32.3 32.3 18.1 42 9.2 WNW 15 28 8 15 1007.0 1006.4 0.0
17/10:00am 32.8 33.1 19.7 46 8.7 NW 17 28 9 15 1007.3 1006.7 0.0
17/09:30am 31.0 31.2 19.4 50 7.6 WNW 17 24 9 13 1007.8 1007.2 0.0
17/09:00am 29.4 30.2 19.1 54 6.7 WNW 13 24 7 13 1008.1 1007.5 0.0
17/08:30am 28.7 28.9 19.3 56 6.1 W 17 26 9 14 1008.4 1007.8 0.0
17/08:00am 28.8 28.4 19.4 56 6.1 WSW 20 28 11 15 1008.6 1008.0 0.0
17/07:30am 27.2 27.1 20.0 64 4.7 W 20 30 11 16 1008.6 1008.0 0.0
17/07:00am 26.2 26.9 20.5 71 3.8 WNW 17 22 9 12 1008.4 1007.8 0.0
17/06:30am 25.9 28.0 20.9 74 3.3 WNW 11 19 6 10 1008.2 1007.6 0.0
17/06:00am 25.0 27.2 21.1 79 2.6 W 11 15 6 8 1007.7 1007.1 0.0
17/05:30am 24.9 27.0 21.0 79 2.6 WNW 11 17 6 9 1007.2 1006.6 0.0
17/05:00am 24.9 26.5 20.8 78 2.7 W 13 20 7 11 1006.8 1006.2 0.0
17/04:30am 25.1 27.3 21.2 79 2.6 WNW 11 17 6 9 1006.3 1005.7 0.0
17/04:00am 24.9 26.7 21.2 80 2.5 WNW 13 20 7 11 1005.9 1005.3 0.0
17/03:30am 25.1 26.2 21.2 79 2.6 WNW 17 22 9 12 1005.6 1005.0 0.0
17/03:00am 25.2 27.2 21.5 80 2.5 WNW 13 19 7 10 1005.4 1004.8 0.0
17/02:30am 25.2 26.8 21.5 80 2.5 WNW 15 19 8 10 1005.5 1004.9 0.0
17/02:00am 25.2 27.3 21.7 81 2.3 WNW 13 20 7 11 1005.6 1005.0 0.0
17/01:30am 25.3 27.0 21.6 80 2.5 WNW 15 26 8 14 1005.6 1005.0 0.0
17/01:00am 25.1 26.3 21.4 80 2.5 WNW 17 24 9 13 1005.7 1005.1 0.0
17/12:30am 25.1 27.0 21.4 80 2.5 WNW 13 19 7 10 1006.0 1005.4 0.0
17/12:00am 25.0 26.4 21.1 79 2.6 WNW 15 22 8 12 1006.3 1005.7 0.0
 
Date/Time
WST
Temp
°C
App
Temp
°C
Dew
Point
°C
Rel
Hum
%
Delta-T
°C
Wind Press
QNH
hPa
Press
MSL
hPa
Rain since
9am
mm
Dir  Spd
km/h
Gust
km/h
Spd
kts
Gust
kts
16/11:30pm 25.3 26.4 20.5 75 3.1 WNW 15 19 8 10 1006.7 1006.1 0.0
16/11:00pm 25.8 27.6 20.4 72 3.5 W 11 15 6 8 1006.8 1006.2 0.0
16/10:30pm 26.3 27.1 19.9 68 4.2 W 15 20 8 11 1006.9 1006.3 0.0
16/10:00pm 26.9 27.9 19.5 64 4.8 W 13 17 7 9 1006.9 1006.3 0.0
16/09:30pm 27.7 28.6 19.2 60 5.5 W 13 19 7 10 1006.8 1006.2 0.0
16/09:00pm 28.4 29.1 18.8 56 6.2 W 13 19 7 10 1006.7 1006.1 0.0
16/08:30pm 29.1 29.4 17.9 50 7.1 W 13 19 7 10 1006.4 1005.8 0.0
16/08:00pm 30.0 30.1 17.5 47 8.0 W 13 17 7 9 1006.0 1005.4 0.0
16/07:30pm 30.9 30.2 16.5 42 9.1 W 15 20 8 11 1005.7 1005.1 0.0
16/07:00pm 31.9 30.4 16.2 38 9.9 W 19 26 10 14 1005.3 1004.7 0.0
16/06:30pm 32.9 30.5 16.3 37 10.5 W 24 32 13 17 1004.8 1004.2 0.0
16/06:00pm 34.2 31.7 17.0 36 11.0 W 26 32 14 17 1004.2 1003.5 0.0
16/05:30pm 35.4 32.7 17.6 35 11.5 W 28 39 15 21 1003.7 1003.0 0.0
16/05:00pm 37.2 35.3 17.7 31 12.8 W 24 33 13 18 1003.2 1002.5 0.0
16/04:30pm 37.6 37.5 20.0 36 11.8 WNW 20 32 11 17 1003.0 1002.3 0.0
16/04:00pm 38.2 38.3 20.0 34 12.3 NNW 19 30 10 16 1003.0 1002.3 0.0
16/03:30pm 38.6 38.7 19.9 33 12.6 NW 19 26 10 14 1003.0 1002.3 0.0
16/03:00pm 38.6 38.5 19.9 33 12.6 NW 20 33 11 18 1002.9 1002.2 0.0
16/02:30pm 38.2 37.9 19.6 34 12.5 NNW 20 32 11 17 1003.0 1002.3 0.0
16/02:00pm 38.0 37.8 19.4 33 12.5 NNW 19 32 10 17 1003.4 1002.7 0.0
16/01:30pm 38.3 38.3 19.7 34 12.5 NNW 19 32 10 17 1003.7 1003.0 0.0
16/01:00pm 37.5 37.5 19.0 34 12.3 NW 17 32 9 17 1004.1 1003.4 0.0
16/12:30pm 37.4 37.2 19.3 34 12.1 NW 19 30 10 16 1004.2 1003.5 0.0
16/12:00pm 37.7 38.4 19.6 34 12.2 WNW 15 24 8 13 1004.6 1003.9 0.0
16/11:30am 35.3 35.2 18.8 37 10.9 WNW 17 26 9 14 1005.1 1004.5 0.0
16/11:00am 36.0 36.2 19.4 37 11.1 NW 17 28 9 15 1005.4 1004.8 0.0
16/10:30am 35.1 35.0 19.5 40 10.4 WNW 19 30 10 16 1006.0 1005.4 0.0
16/10:00am 33.2 33.2 19.7 45 9.0 NW 19 28 10 15 1006.3 1005.7 0.0
16/09:30am 32.6 32.9 20.5 49 8.1 WNW 19 26 10 14 1006.7 1006.1 0.0
16/09:00am 31.5 32.3 21.4 55 6.8 WNW 19 30 10 16 1006.8 1006.2 0.0
16/08:30am 30.0 31.1 21.9 62 5.5 WNW 19 30 10 16 1006.9 1006.3 0.0
16/08:00am 29.0 30.4 22.5 68 4.4 WNW 19 28 10 15 1007.0 1006.4 0.0
16/07:30am 28.5 29.3 22.5 70 4.1 W 22 32 12 17 1006.9 1006.3 0.0
16/07:02am 27.3 29.3 22.9 77 3.0 WNW 17 24 9 13 1006.7 1006.1 0.0
16/07:00am 27.5 29.6 23.1 77 3.0 WNW 17 20 9 11 1006.7 1006.1 0.0
16/06:30am 26.1 28.6 23.2 84 2.0 WNW 15 22 8 12 1006.5 1005.9 0.0
16/06:29am 26.1 28.6 23.2 84 2.0 NW 15 22 8 12 1006.5 1005.9 0.0
16/06:00am 25.3 28.8 23.5 90 1.2 NW 11 15 6 8 1006.4 1005.8 0.0
16/05:30am 24.0 27.6 23.0 94 0.7 NNW 9 11 5 6 1006.2 1005.6 0.0
16/05:00am 23.8 27.3 22.8 94 0.7 NNW 9 11 5 6 1005.8 1005.2 0.0
16/04:30am 24.1 27.6 22.9 93 0.8 NW 9 11 5 6 1005.4 1004.8 0.0
16/04:00am 24.4 27.9 22.8 91 1.1 NW 9 11 5 6 1005.1 1004.5 0.0
16/03:30am 24.7 28.2 22.8 89 1.3 NW 9 11 5 6 1005.0 1004.4 0.0
16/03:00am 25.0 28.5 22.9 88 1.4 NW 9 11 5 6 1004.7 1004.0 0.0
16/02:30am 25.3 28.9 23.0 87 1.6 NW 9 13 5 7 1004.7 1004.0 0.0
16/02:00am 25.7 29.2 22.8 84 2.0 NW 9 11 5 6 1004.7 1004.0 0.0
16/01:30am 26.2 29.3 22.9 82 2.2 WNW 11 17 6 9 1004.6 1003.9 0.0
16/01:00am 26.5 29.1 22.6 79 2.6 NW 13 17 7 9 1004.8 1004.2 0.0
16/12:30am 26.6 28.8 21.1 72 3.6 WNW 11 15 6 8 1004.9 1004.3 0.0
16/12:00am 27.2 28.6 19.5 62 5.0 WNW 11 19 6 10 1004.8 1004.2 0.0
 
Date/Time
WST
Temp
°C
App
Temp
°C
Dew
Point
°C
Rel
Hum
%
Delta-T
°C
Wind Press
QNH
hPa
Press
MSL
hPa
Rain since
9am
mm
Dir  Spd
km/h
Gust
km/h
Spd
kts
Gust
kts
15/11:30pm 27.8 29.0 19.1 59 5.6 NW 11 15 6 8 1005.0 1004.4 0.0
15/11:00pm 28.1 29.8 19.3 58 5.7 NW 9 13 5 7 1005.1 1004.5 0.0
15/10:30pm 28.7 31.5 21.5 65 4.8 NW 9 15 5 8 1005.0 1004.4 0.0
15/10:00pm 29.1 32.6 23.5 72 3.9 NW 11 15 6 8 1004.9 1004.3 0.0
15/09:30pm 29.5 32.8 23.9 72 3.9 NNW 13 15 7 8 1004.7 1004.0 0.0
15/09:00pm 29.9 32.7 24.3 72 3.9 NNW 17 22 9 12 1004.3 1003.6 0.0
15/08:30pm 30.2 33.2 24.6 72 3.9 NNW 17 22 9 12 1003.8 1003.1 0.0
15/08:00pm 30.3 33.2 25.1 73 3.7 NNW 19 26 10 14 1003.3 1002.6 0.0
15/07:30pm 30.5 32.9 24.6 70 4.1 NNW 20 30 11 16 1003.0 1002.3 0.0
15/07:00pm 30.9 32.7 24.3 68 4.6 NNW 22 35 12 19 1002.5 1001.8 0.0
15/06:30pm 31.6 33.6 24.5 66 5.0 NNW 22 33 12 18 1002.2 1001.5 0.0
15/06:00pm 32.7 34.9 24.2 61 6.0 NNW 20 30 11 16 1001.8 1001.1 0.0
15/05:30pm 33.7 35.4 24.0 57 6.8 NNW 22 30 12 16 1001.7 1001.0 0.0
15/05:00pm 34.7 36.7 24.0 53 7.5 NNW 20 32 11 17 1001.4 1000.7 0.0
15/04:30pm 36.4 38.4 23.6 47 9.0 NNW 19 28 10 15 1001.3 1000.6 0.0
15/04:00pm 37.2 38.8 23.3 45 9.8 NNW 20 30 11 16 1001.0 1000.4 0.0
15/03:30pm 37.8 39.7 22.7 42 10.5 NW 17 26 9 14 1001.0 1000.4 0.0
15/03:00pm 37.6 39.2 22.1 40 10.7 NW 17 26 9 14 1001.1 1000.5 0.0
15/02:30pm 38.0 39.3 22.4 40 10.8 NNW 19 30 10 16 1001.6 1000.9 0.0
15/02:00pm 37.9 39.0 21.9 39 11.1 NNW 19 30 10 16 1001.8 1001.1 0.0
15/01:30pm 37.2 38.9 21.7 40 10.6 NNW 15 26 8 14 1002.1 1001.4 0.0
15/01:00pm 37.5 39.5 21.6 39 10.9 NW 13 20 7 11 1002.4 1001.7 0.0
15/12:30pm 37.1 39.1 21.6 40 10.6 WNW 13 24 7 13 1002.8 1002.1 0.0
15/12:00pm 36.4 38.3 21.4 41 10.3 NW 13 19 7 10 1003.3 1002.6 0.0
15/11:30am 35.7 37.9 21.9 44 9.5 NNW 13 22 7 12 1003.7 1003.0 0.0
15/11:00am 34.7 36.4 21.7 46 8.9 NNW 15 22 8 12 1004.1 1003.4 0.0
15/10:30am 34.1 37.0 22.5 50 8.0 N 11 20 6 11 1004.5 1003.8 0.0
15/10:00am 33.2 35.7 21.7 51 7.8 NW 11 17 6 9 1004.9 1004.3 0.0
15/09:30am 32.0 34.5 21.8 54 6.9 NW 11 20 6 11 1005.2 1004.6 0.0
15/09:00am 31.4 34.3 22.4 59 6.2 NNW 11 17 6 9 1005.7 1005.1 0.0
15/08:30am 30.6 33.0 22.2 61 5.7 NW 13 19 7 10 1005.8 1005.2 0.0
15/08:00am 29.8 33.2 23.3 68 4.5 NNW 11 19 6 10 1006.0 1005.4 0.0
15/07:30am 29.4 32.8 23.4 70 4.1 NW 11 15 6 8 1005.8 1005.2 0.0
15/07:00am 28.5 32.2 23.2 73 3.6 NNW 9 13 5 7 1006.0 1005.4 0.0
15/06:30am 28.2 32.0 24.0 78 2.9 WNW 11 15 6 8 1005.9 1005.3 0.0
15/06:00am 27.2 31.9 24.3 84 2.0 WNW 7 11 4 6 1005.7 1005.1 0.0
15/05:30am 26.7 31.3 24.2 86 1.7 NW 7 9 4 5 1005.5 1004.9 0.0
15/05:00am 26.8 31.0 24.1 85 1.9 WNW 9 13 5 7 1005.2 1004.6 0.0
15/04:30am 27.2 30.8 24.3 84 2.0 NW 13 19 7 10 1004.8 1004.2 0.0
15/04:00am 27.3 31.3 24.4 84 2.0 WNW 11 17 6 9 1004.6 1003.9 0.0
15/03:30am 26.9 31.3 24.4 86 1.7 NW 9 13 5 7 1004.4 1003.7 0.0
15/03:00am 27.1 31.5 24.4 85 1.9 WNW 9 13 5 7 1004.2 1003.5 0.0
15/02:30am 27.2 31.3 24.5 85 1.9 WNW 11 15 6 8 1004.2 1003.5 0.0
15/02:00am 27.5 31.2 24.6 84 2.0 WNW 13 17 7 9 1004.3 1003.6 0.0
15/01:30am 27.5 31.7 24.7 85 2.0 WNW 11 17 6 9 1004.5 1003.8 0.0
15/01:00am 27.3 31.0 24.6 85 1.9 NW 13 19 7 10 1004.3 1003.6 0.0
15/12:30am 27.4 31.1 24.5 84 2.0 NW 13 20 7 11 1004.3 1003.6 0.0
15/12:00am 27.7 31.3 24.3 82 2.4 NW 13 19 7 10 1004.6 1003.9 0.0
 
Date/Time
WST
Temp
°C
App
Temp
°C
Dew
Point
°C
Rel
Hum
%
Delta-T
°C
Wind Press
QNH
hPa
Press
MSL
hPa
Rain since
9am
mm
Dir  Spd
km/h
Gust
km/h
Spd
kts
Gust
kts
14/11:30pm 27.9 31.5 24.3 81 2.5 NW 13 19 7 10 1004.6 1003.9 0.0
14/11:00pm 28.1 30.9 24.3 80 2.6 NW 17 24 9 13 1004.9 1004.3 0.0
14/10:30pm 28.3 31.1 24.3 79 2.8 NNW 17 22 9 12 1005.0 1004.4 0.0
14/10:00pm 28.7 31.1 24.3 77 3.1 NW 19 28 10 15 1005.0 1004.4 0.0
14/09:30pm 29.0 31.2 24.3 76 3.3 NW 20 30 11 16 1004.9 1004.3 0.0
14/09:00pm 28.9 32.2 25.1 80 2.7 NNW 17 24 9 13 1004.9 1004.3 0.0
14/08:30pm 29.0 32.1 24.8 78 2.9 NNW 17 20 9 11 1004.7 1004.0 0.0
14/08:00pm 29.2 32.1 24.5 76 3.3 NNW 17 26 9 14 1004.5 1003.8 0.0
14/07:30pm 29.5 31.8 24.1 72 3.8 NNW 19 28 10 15 1004.1 1003.4 0.0
14/07:00pm 30.0 31.5 23.7 69 4.4 N 22 32 12 17 1004.1 1003.4 0.0
14/06:30pm 30.6 33.0 23.0 64 5.2 NNW 15 22 8 12 1003.7 1003.0 0.0
14/06:00pm 31.3 32.2 22.0 57 6.3 NNW 20 32 11 17 1003.5 1002.8 0.0

Other Formats:

Comma delimited format used in spreadsheet applications
http://www.bom.gov.au/fwo/IDW60801/IDW60801.94204.axf

JavaScript Object Notation format (JSON) in row-major order
http://www.bom.gov.au/fwo/IDW60801/IDW60801.94204.json